sensor_id;sensor_type;location;lat;lon;timestamp;pressure;altitude;pressure_sealevel;temperature;humidity
53719;BME280;39616;48.872;9.390;2023-02-14T00:00:37;100224.72;;;-2.38;100.00
53719;BME280;39616;48.872;9.390;2023-02-14T00:03:07;100222.38;;;-2.33;100.00
53719;BME280;39616;48.872;9.390;2023-02-14T00:05:37;100221.72;;;-2.27;100.00
53719;BME280;39616;48.872;9.390;2023-02-14T00:08:08;100219.56;;;-2.24;100.00
53719;BME280;39616;48.872;9.390;2023-02-14T00:10:38;100223.88;;;-2.23;100.00
53719;BME280;39616;48.872;9.390;2023-02-14T00:13:08;100225.03;;;-2.17;100.00
53719;BME280;39616;48.872;9.390;2023-02-14T00:15:38;100233.34;;;-2.12;100.00
53719;BME280;39616;48.872;9.390;2023-02-14T00:18:09;100223.19;;;-2.08;100.00
53719;BME280;39616;48.872;9.390;2023-02-14T00:20:39;100215.22;;;-2.08;100.00
53719;BME280;39616;48.872;9.390;2023-02-14T00:23:09;100220.72;;;-2.10;100.00
53719;BME280;39616;48.872;9.390;2023-02-14T00:25:40;100232.81;;;-2.07;100.00
53719;BME280;39616;48.872;9.390;2023-02-14T00:28:10;100225.03;;;-2.09;100.00
53719;BME280;39616;48.872;9.390;2023-02-14T00:30:40;100218.88;;;-2.09;100.00
53719;BME280;39616;48.872;9.390;2023-02-14T00:33:10;100218.88;;;-2.09;100.00
53719;BME280;39616;48.872;9.390;2023-02-14T00:35:41;100226.50;;;-2.14;100.00
53719;BME280;39616;48.872;9.390;2023-02-14T00:38:11;100224.19;;;-2.17;100.00
53719;BME280;39616;48.872;9.390;2023-02-14T00:40:41;100229.69;;;-2.19;100.00
53719;BME280;39616;48.872;9.390;2023-02-14T00:43:12;100227.84;;;-2.19;100.00
53719;BME280;39616;48.872;9.390;2023-02-14T00:45:42;100226.84;;;-2.17;100.00
53719;BME280;39616;48.872;9.390;2023-02-14T00:48:13;100228.03;;;-2.20;100.00
53719;BME280;39616;48.872;9.390;2023-02-14T00:50:43;100222.03;;;-2.22;100.00
53719;BME280;39616;48.872;9.390;2023-02-14T00:53:15;100220.38;;;-2.23;100.00
53719;BME280;39616;48.872;9.390;2023-02-14T00:55:45;100220.19;;;-2.22;100.00
53719;BME280;39616;48.872;9.390;2023-02-14T00:58:16;100216.56;;;-2.21;100.00
53719;BME280;39616;48.872;9.390;2023-02-14T01:00:48;100214.56;;;-2.19;100.00
53719;BME280;39616;48.872;9.390;2023-02-14T01:03:19;100219.72;;;-2.25;100.00
53719;BME280;39616;48.872;9.390;2023-02-14T01:05:49;100220.22;;;-2.38;100.00
53719;BME280;39616;48.872;9.390;2023-02-14T01:08:21;100221.56;;;-2.42;100.00
53719;BME280;39616;48.872;9.390;2023-02-14T01:10:52;100222.84;;;-2.54;100.00
53719;BME280;39616;48.872;9.390;2023-02-14T01:13:22;100224.69;;;-2.63;100.00
53719;BME280;39616;48.872;9.390;2023-02-14T01:15:52;100224.38;;;-2.68;100.00
53719;BME280;39616;48.872;9.390;2023-02-14T01:18:23;100221.53;;;-2.67;100.00
53719;BME280;39616;48.872;9.390;2023-02-14T01:20:53;100217.88;;;-2.65;100.00
53719;BME280;39616;48.872;9.390;2023-02-14T01:23:23;100217.88;;;-2.65;100.00
53719;BME280;39616;48.872;9.390;2023-02-14T01:25:54;100213.06;;;-2.70;100.00
53719;BME280;39616;48.872;9.390;2023-02-14T01:28:24;100215.22;;;-2.74;100.00
53719;BME280;39616;48.872;9.390;2023-02-14T01:30:54;100214.22;;;-2.81;100.00
53719;BME280;39616;48.872;9.390;2023-02-14T01:33:24;100227.97;;;-2.85;100.00
53719;BME280;39616;48.872;9.390;2023-02-14T01:35:55;100220.97;;;-2.95;100.00
53719;BME280;39616;48.872;9.390;2023-02-14T01:38:25;100220.31;;;-2.97;100.00
53719;BME280;39616;48.872;9.390;2023-02-14T01:40:56;100217.00;;;-2.99;100.00
53719;BME280;39616;48.872;9.390;2023-02-14T01:43:26;100210.84;;;-2.99;100.00
53719;BME280;39616;48.872;9.390;2023-02-14T01:45:56;100215.03;;;-2.97;100.00
53719;BME280;39616;48.872;9.390;2023-02-14T01:48:27;100210.53;;;-2.96;100.00
53719;BME280;39616;48.872;9.390;2023-02-14T01:50:57;100217.34;;;-2.94;100.00
53719;BME280;39616;48.872;9.390;2023-02-14T01:53:28;100211.53;;;-2.97;100.00
53719;BME280;39616;48.872;9.390;2023-02-14T01:56:03;100214.84;;;-2.95;100.00
53719;BME280;39616;48.872;9.390;2023-02-14T01:58:37;100204.22;;;-2.95;100.00
53719;BME280;39616;48.872;9.390;2023-02-14T02:01:08;100207.56;;;-2.93;100.00
53719;BME280;39616;48.872;9.390;2023-02-14T02:03:46;100208.38;;;-2.93;100.00
53719;BME280;39616;48.872;9.390;2023-02-14T02:06:22;100207.88;;;-3.04;100.00
53719;BME280;39616;48.872;9.390;2023-02-14T02:08:59;100205.53;;;-3.16;100.00
53719;BME280;39616;48.872;9.390;2023-02-14T02:11:33;100198.69;;;-3.18;100.00
53719;BME280;39616;48.872;9.390;2023-02-14T02:14:04;100204.63;;;-3.32;100.00
53719;BME280;39616;48.872;9.390;2023-02-14T02:16:49;100202.66;;;-3.30;100.00
53719;BME280;39616;48.872;9.390;2023-02-14T02:28:10;100204.34;;;-3.21;100.00
53719;BME280;39616;48.872;9.390;2023-02-14T02:36:27;100209.19;;;-3.17;100.00
53719;BME280;39616;48.872;9.390;2023-02-14T02:42:07;100207.50;;;-3.09;100.00
53719;BME280;39616;48.872;9.390;2023-02-14T02:44:55;100212.03;;;-3.02;100.00
53719;BME280;39616;48.872;9.390;2023-02-14T02:47:37;100197.59;;;-2.91;100.00
53719;BME280;39616;48.872;9.390;2023-02-14T02:50:33;100199.59;;;-2.85;100.00
53719;BME280;39616;48.872;9.390;2023-02-14T02:56:08;100198.78;;;-2.94;100.00
53719;BME280;39616;48.872;9.390;2023-02-14T02:59:09;100205.03;;;-3.11;100.00
53719;BME280;39616;48.872;9.390;2023-02-14T03:02:00;100199.22;;;-3.14;100.00
53719;BME280;39616;48.872;9.390;2023-02-14T03:04:35;100203.19;;;-3.10;100.00
53719;BME280;39616;48.872;9.390;2023-02-14T03:15:40;100199.72;;;-3.03;100.00
53719;BME280;39616;48.872;9.390;2023-02-14T03:21:36;100208.38;;;-3.01;100.00
53719;BME280;39616;48.872;9.390;2023-02-14T03:27:05;100212.03;;;-3.02;100.00
53719;BME280;39616;48.872;9.390;2023-02-14T03:30:00;100205.22;;;-3.04;100.00
53719;BME280;39616;48.872;9.390;2023-02-14T03:32:45;100211.66;;;-3.07;100.00
53719;BME280;39616;48.872;9.390;2023-02-14T03:35:22;100209.34;;;-3.10;100.00
53719;BME280;39616;48.872;9.390;2023-02-14T03:38:02;100203.91;;;-3.00;100.00
53719;BME280;39616;48.872;9.390;2023-02-14T03:40:46;100196.25;;;-2.95;100.00
53719;BME280;39616;48.872;9.390;2023-02-14T03:43:32;100193.59;;;-2.95;100.00
53719;BME280;39616;48.872;9.390;2023-02-14T03:46:12;100196.75;;;-3.08;100.00
53719;BME280;39616;48.872;9.390;2023-02-14T03:48:46;100197.25;;;-3.12;100.00
53719;BME280;39616;48.872;9.390;2023-02-14T03:51:18;100196.06;;;-3.18;100.00
53719;BME280;39616;48.872;9.390;2023-02-14T03:53:54;100193.06;;;-3.15;100.00
53719;BME280;39616;48.872;9.390;2023-02-14T03:56:34;100185.28;;;-3.17;100.00
53719;BME280;39616;48.872;9.390;2023-02-14T03:59:13;100187.78;;;-3.15;100.00
53719;BME280;39616;48.872;9.390;2023-02-14T04:01:52;100194.22;;;-3.26;100.00
53719;BME280;39616;48.872;9.390;2023-02-14T04:04:27;100190.22;;;-3.30;100.00
53719;BME280;39616;48.872;9.390;2023-02-14T04:07:07;100185.72;;;-3.37;100.00
53719;BME280;39616;48.872;9.390;2023-02-14T04:09:38;100189.69;;;-3.42;100.00
53719;BME280;39616;48.872;9.390;2023-02-14T04:12:09;100181.03;;;-3.44;100.00
53719;BME280;39616;48.872;9.390;2023-02-14T04:14:40;100178.91;;;-3.40;100.00
53719;BME280;39616;48.872;9.390;2023-02-14T04:17:10;100180.25;;;-3.36;100.00
53719;BME280;39616;48.872;9.390;2023-02-14T04:19:59;100186.41;;;-3.27;100.00
53719;BME280;39616;48.872;9.390;2023-02-14T04:22:29;100185.25;;;-3.25;100.00
53719;BME280;39616;48.872;9.390;2023-02-14T04:25:00;100188.41;;;-3.21;100.00
53719;BME280;39616;48.872;9.390;2023-02-14T04:27:30;100189.22;;;-3.21;100.00
53719;BME280;39616;48.872;9.390;2023-02-14T04:30:00;100187.25;;;-3.19;100.00
53719;BME280;39616;48.872;9.390;2023-02-14T04:32:31;100188.78;;;-3.08;100.00
53719;BME280;39616;48.872;9.390;2023-02-14T04:35:01;100179.19;;;-3.01;100.00
53719;BME280;39616;48.872;9.390;2023-02-14T04:37:31;100179.19;;;-2.93;100.00
53719;BME280;39616;48.872;9.390;2023-02-14T04:40:02;100175.19;;;-2.88;100.00
53719;BME280;39616;48.872;9.390;2023-02-14T04:42:32;100176.72;;;-2.86;100.00
53719;BME280;39616;48.872;9.390;2023-02-14T04:45:03;100177.72;;;-2.87;100.00
53719;BME280;39616;48.872;9.390;2023-02-14T04:47:33;100172.41;;;-2.87;100.00
53719;BME280;39616;48.872;9.390;2023-02-14T04:50:04;100175.69;;;-2.93;100.00
53719;BME280;39616;48.872;9.390;2023-02-14T04:52:34;100174.19;;;-2.96;100.00
53719;BME280;39616;48.872;9.390;2023-02-14T04:55:05;100171.53;;;-3.04;100.00
53719;BME280;39616;48.872;9.390;2023-02-14T04:57:36;100172.53;;;-3.05;100.00
53719;BME280;39616;48.872;9.390;2023-02-14T05:00:07;100170.53;;;-3.03;100.00
53719;BME280;39616;48.872;9.390;2023-02-14T05:02:37;100173.88;;;-3.01;100.00
53719;BME280;39616;48.872;9.390;2023-02-14T05:05:08;100178.66;;;-3.04;100.00
53719;BME280;39616;48.872;9.390;2023-02-14T05:07:38;100170.34;;;-3.09;100.00
53719;BME280;39616;48.872;9.390;2023-02-14T05:10:09;100170.19;;;-3.16;100.00
53719;BME280;39616;48.872;9.390;2023-02-14T05:12:39;100172.16;;;-3.18;100.00
53719;BME280;39616;48.872;9.390;2023-02-14T05:15:10;100172.34;;;-3.20;100.00
53719;BME280;39616;48.872;9.390;2023-02-14T05:17:40;100179.94;;;-3.25;100.00
53719;BME280;39616;48.872;9.390;2023-02-14T05:20:11;100173.31;;;-3.29;100.00
53719;BME280;39616;48.872;9.390;2023-02-14T05:22:41;100178.56;;;-3.45;100.00
53719;BME280;39616;48.872;9.390;2023-02-14T05:25:11;100169.09;;;-3.48;100.00
53719;BME280;39616;48.872;9.390;2023-02-14T05:27:41;100169.28;;;-3.49;100.00
53719;BME280;39616;48.872;9.390;2023-02-14T05:30:12;100169.56;;;-3.60;100.00
53719;BME280;39616;48.872;9.390;2023-02-14T05:32:43;100173.19;;;-3.61;100.00
53719;BME280;39616;48.872;9.390;2023-02-14T05:35:13;100176.13;;;-3.73;100.00
53719;BME280;39616;48.872;9.390;2023-02-14T05:37:43;100177.63;;;-3.70;100.00
53719;BME280;39616;48.872;9.390;2023-02-14T05:40:13;100172.31;;;-3.78;100.00
53719;BME280;39616;48.872;9.390;2023-02-14T05:42:45;100172.09;;;-3.85;100.00
53719;BME280;39616;48.872;9.390;2023-02-14T05:45:15;100179.38;;;-3.87;100.00
53719;BME280;39616;48.872;9.390;2023-02-14T05:47:46;100177.72;;;-3.88;100.00
53719;BME280;39616;48.872;9.390;2023-02-14T05:50:17;100186.78;;;-3.91;100.00
53719;BME280;39616;48.872;9.390;2023-02-14T05:52:47;100184.00;;;-3.89;100.00
53719;BME280;39616;48.872;9.390;2023-02-14T05:55:18;100177.72;;;-3.88;100.00
53719;BME280;39616;48.872;9.390;2023-02-14T05:57:48;100183.03;;;-3.80;100.00
53719;BME280;39616;48.872;9.390;2023-02-14T06:00:19;100190.16;;;-3.80;100.00
53719;BME280;39616;48.872;9.390;2023-02-14T06:02:49;100189.56;;;-3.74;100.00
53719;BME280;39616;48.872;9.390;2023-02-14T06:05:20;100197.34;;;-3.73;100.00
53719;BME280;39616;48.872;9.390;2023-02-14T06:07:50;100205.81;;;-3.69;100.00
53719;BME280;39616;48.872;9.390;2023-02-14T06:10:23;100202.00;;;-3.67;100.00
53719;BME280;39616;48.872;9.390;2023-02-14T06:12:54;100197.50;;;-3.74;100.00
53719;BME280;39616;48.872;9.390;2023-02-14T06:15:24;100200.25;;;-3.84;100.00
53719;BME280;39616;48.872;9.390;2023-02-14T06:17:56;100207.03;;;-3.90;100.00
53719;BME280;39616;48.872;9.390;2023-02-14T06:20:26;100202.88;;;-3.92;100.00
53719;BME280;39616;48.872;9.390;2023-02-14T06:22:57;100208.16;;;-3.92;100.00
53719;BME280;39616;48.872;9.390;2023-02-14T06:25:28;100203.38;;;-3.89;100.00
53719;BME280;39616;48.872;9.390;2023-02-14T06:27:58;100201.56;;;-3.88;100.00
53719;BME280;39616;48.872;9.390;2023-02-14T06:30:28;100205.22;;;-3.89;100.00
53719;BME280;39616;48.872;9.390;2023-02-14T06:32:59;100206.72;;;-3.86;100.00
53719;BME280;39616;48.872;9.390;2023-02-14T06:35:29;100216.66;;;-3.89;100.00
53719;BME280;39616;48.872;9.390;2023-02-14T06:37:59;100207.34;;;-3.93;100.00
53719;BME280;39616;48.872;9.390;2023-02-14T06:40:30;100208.28;;;-4.02;100.00
53719;BME280;39616;48.872;9.390;2023-02-14T06:43:00;100209.13;;;-4.01;100.00
53719;BME280;39616;48.872;9.390;2023-02-14T06:45:30;100211.59;;;-4.00;100.00
53719;BME280;39616;48.872;9.390;2023-02-14T06:48:01;100203.88;;;-3.93;100.00
53719;BME280;39616;48.872;9.390;2023-02-14T06:50:31;100211.50;;;-3.90;100.00
53719;BME280;39616;48.872;9.390;2023-02-14T06:53:01;100214.00;;;-3.89;100.00
53719;BME280;39616;48.872;9.390;2023-02-14T06:55:32;100214.50;;;-3.85;100.00
53719;BME280;39616;48.872;9.390;2023-02-14T06:58:02;100218.81;;;-3.84;100.00
53719;BME280;39616;48.872;9.390;2023-02-14T07:00:32;100218.03;;;-3.76;100.00
53719;BME280;39616;48.872;9.390;2023-02-14T07:03:03;100216.06;;;-3.74;100.00
53719;BME280;39616;48.872;9.390;2023-02-14T07:05:33;100208.97;;;-3.66;100.00
53719;BME280;39616;48.872;9.390;2023-02-14T07:08:04;100205.09;;;-3.45;100.00
53719;BME280;39616;48.872;9.390;2023-02-14T07:10:36;100211.47;;;-3.22;100.00
53719;BME280;39616;48.872;9.390;2023-02-14T07:13:06;100216.34;;;-3.01;100.00
53719;BME280;39616;48.872;9.390;2023-02-14T07:15:37;100212.56;;;-2.82;100.00
53719;BME280;39616;48.872;9.390;2023-02-14T07:18:07;100207.59;;;-2.69;100.00
53719;BME280;39616;48.872;9.390;2023-02-14T07:20:39;100211.91;;;-2.59;100.00
53719;BME280;39616;48.872;9.390;2023-02-14T07:23:10;100213.56;;;-2.34;100.00
53719;BME280;39616;48.872;9.390;2023-02-14T07:25:40;100211.88;;;-2.10;100.00
53719;BME280;39616;48.872;9.390;2023-02-14T07:28:11;100201.22;;;-1.86;100.00
53719;BME280;39616;48.872;9.390;2023-02-14T07:30:41;100206.47;;;-1.61;100.00
53719;BME280;39616;48.872;9.390;2023-02-14T07:33:11;100190.91;;;-1.41;100.00
53719;BME280;39616;48.872;9.390;2023-02-14T07:35:41;100194.16;;;-1.23;100.00
53719;BME280;39616;48.872;9.390;2023-02-14T07:38:12;100189.13;;;-1.18;100.00
53719;BME280;39616;48.872;9.390;2023-02-14T07:40:42;100192.25;;;-1.06;99.95
53719;BME280;39616;48.872;9.390;2023-02-14T07:43:12;100188.44;;;-0.89;100.00
53719;BME280;39616;48.872;9.390;2023-02-14T07:45:43;100187.56;;;-0.81;98.08
53719;BME280;39616;48.872;9.390;2023-02-14T07:48:13;100183.44;;;-0.61;96.76
53719;BME280;39616;48.872;9.390;2023-02-14T07:50:43;100189.81;;;-0.47;94.74
53719;BME280;39616;48.872;9.390;2023-02-14T07:53:14;100194.25;;;-0.39;94.00
53719;BME280;39616;48.872;9.390;2023-02-14T07:55:48;100184.94;;;-0.20;92.93
53719;BME280;39616;48.872;9.390;2023-02-14T07:58:18;100184.03;;;0.32;91.62
53719;BME280;39616;48.872;9.390;2023-02-14T08:00:49;100185.50;;;0.64;88.93
53719;BME280;39616;48.872;9.390;2023-02-14T08:03:20;100188.56;;;0.97;89.12
53719;BME280;39616;48.872;9.390;2023-02-14T08:05:50;100185.28;;;1.38;87.06
53719;BME280;39616;48.872;9.390;2023-02-14T08:08:29;100182.75;;;1.79;85.06
53719;BME280;39616;48.872;9.390;2023-02-14T08:10:59;100183.41;;;1.81;83.09
53719;BME280;39616;48.872;9.390;2023-02-14T08:13:30;100182.47;;;1.96;84.85
53719;BME280;39616;48.872;9.390;2023-02-14T08:16:00;100182.44;;;2.24;81.46
53719;BME280;39616;48.872;9.390;2023-02-14T08:18:36;100172.50;;;2.52;80.50
53719;BME280;39616;48.872;9.390;2023-02-14T08:21:09;100181.03;;;2.69;81.19
53719;BME280;39616;48.872;9.390;2023-02-14T08:23:39;100171.59;;;2.80;80.39
53719;BME280;39616;48.872;9.390;2023-02-14T08:26:09;100172.28;;;3.08;79.40
53719;BME280;39616;48.872;9.390;2023-02-14T08:28:40;100168.03;;;3.34;79.12
53719;BME280;39616;48.872;9.390;2023-02-14T08:31:10;100167.41;;;3.38;78.46
53719;BME280;39616;48.872;9.390;2023-02-14T08:33:41;100177.13;;;3.53;78.14
53719;BME280;39616;48.872;9.390;2023-02-14T08:36:13;100181.47;;;3.74;75.82
53719;BME280;39616;48.872;9.390;2023-02-14T08:38:44;100177.53;;;3.63;76.73
53719;BME280;39616;48.872;9.390;2023-02-14T08:41:17;100177.56;;;3.83;78.08
53719;BME280;39616;48.872;9.390;2023-02-14T08:43:48;100180.16;;;4.29;77.85
53719;BME280;39616;48.872;9.390;2023-02-14T08:46:19;100167.31;;;4.90;73.27
53719;BME280;39616;48.872;9.390;2023-02-14T08:48:49;100165.78;;;5.14;72.02
53719;BME280;39616;48.872;9.390;2023-02-14T08:51:21;100165.59;;;5.08;71.94
53719;BME280;39616;48.872;9.390;2023-02-14T08:53:55;100159.63;;;5.38;72.85
53719;BME280;39616;48.872;9.390;2023-02-14T08:56:25;100164.63;;;5.60;71.83
53719;BME280;39616;48.872;9.390;2023-02-14T08:58:55;100161.25;;;5.71;71.05
53719;BME280;39616;48.872;9.390;2023-02-14T09:01:26;100150.75;;;6.31;70.23
53719;BME280;39616;48.872;9.390;2023-02-14T09:03:58;100143.03;;;6.35;69.02
53719;BME280;39616;48.872;9.390;2023-02-14T09:06:28;100142.66;;;6.68;67.88
53719;BME280;39616;48.872;9.390;2023-02-14T09:08:58;100145.16;;;6.81;66.74
53719;BME280;39616;48.872;9.390;2023-02-14T09:11:29;100145.28;;;6.56;67.81
53719;BME280;39616;48.872;9.390;2023-02-14T09:14:00;100148.31;;;6.96;67.42
53719;BME280;39616;48.872;9.390;2023-02-14T09:16:30;100143.69;;;6.85;67.13
53719;BME280;39616;48.872;9.390;2023-02-14T09:19:00;100137.84;;;7.18;66.73
53719;BME280;39616;48.872;9.390;2023-02-14T09:21:30;100130.13;;;7.45;64.85
53719;BME280;39616;48.872;9.390;2023-02-14T09:24:01;100128.84;;;6.76;66.88
53719;BME280;39616;48.872;9.390;2023-02-14T09:26:31;100124.84;;;7.39;65.25
53719;BME280;39616;48.872;9.390;2023-02-14T09:29:02;100126.53;;;7.63;65.71
53719;BME280;39616;48.872;9.390;2023-02-14T09:31:32;100118.63;;;7.38;66.13
53719;BME280;39616;48.872;9.390;2023-02-14T09:34:03;100125.53;;;7.22;65.70
53719;BME280;39616;48.872;9.390;2023-02-14T09:36:51;100121.34;;;6.96;66.08
53719;BME280;39616;48.872;9.390;2023-02-14T09:39:40;100121.59;;;6.76;67.53
53719;BME280;39616;48.872;9.390;2023-02-14T09:44:52;100123.22;;;7.38;65.93
53719;BME280;39616;48.872;9.390;2023-02-14T09:50:23;100116.28;;;8.24;63.41
53719;BME280;39616;48.872;9.390;2023-02-14T09:52:57;100115.97;;;7.85;62.55
53719;BME280;39616;48.872;9.390;2023-02-14T09:55:38;100112.44;;;8.72;61.14
53719;BME280;39616;48.872;9.390;2023-02-14T09:58:20;100121.69;;;8.88;61.10
53719;BME280;39616;48.872;9.390;2023-02-14T10:00:58;100114.22;;;9.24;59.48
53719;BME280;39616;48.872;9.390;2023-02-14T10:03:46;100113.16;;;9.41;59.23
53719;BME280;39616;48.872;9.390;2023-02-14T10:09:23;100104.56;;;9.44;59.01
53719;BME280;39616;48.872;9.390;2023-02-14T10:11:56;100098.97;;;9.34;59.28
53719;BME280;39616;48.872;9.390;2023-02-14T10:14:29;100100.41;;;9.08;60.24
53719;BME280;39616;48.872;9.390;2023-02-14T10:17:07;100094.66;;;8.88;60.42
53719;BME280;39616;48.872;9.390;2023-02-14T10:22:20;100095.63;;;8.30;62.49
53719;BME280;39616;48.872;9.390;2023-02-14T10:25:02;100097.19;;;7.90;63.60
53719;BME280;39616;48.872;9.390;2023-02-14T10:27:39;100092.72;;;8.08;62.71
53719;BME280;39616;48.872;9.390;2023-02-14T10:30:18;100088.44;;;8.23;62.81
53719;BME280;39616;48.872;9.390;2023-02-14T10:35:48;100083.38;;;8.27;63.10
53719;BME280;39616;48.872;9.390;2023-02-14T10:38:45;100072.38;;;8.69;62.08
53719;BME280;39616;48.872;9.390;2023-02-14T10:44:17;100069.31;;;8.25;62.39
53719;BME280;39616;48.872;9.390;2023-02-14T10:47:17;100067.47;;;8.54;62.35
53719;BME280;39616;48.872;9.390;2023-02-14T10:50:03;100071.59;;;8.85;62.27
53719;BME280;39616;48.872;9.390;2023-02-14T10:55:50;100059.94;;;9.47;60.22
53719;BME280;39616;48.872;9.390;2023-02-14T10:58:26;100055.56;;;9.12;61.09
53719;BME280;39616;48.872;9.390;2023-02-14T11:01:11;100056.78;;;9.05;61.60
53719;BME280;39616;48.872;9.390;2023-02-14T11:03:52;100048.91;;;9.20;61.56
53719;BME280;39616;48.872;9.390;2023-02-14T11:06:23;100039.97;;;10.09;59.71
53719;BME280;39616;48.872;9.390;2023-02-14T11:08:54;100034.47;;;10.70;57.06
53719;BME280;39616;48.872;9.390;2023-02-14T11:11:32;100032.09;;;11.05;56.56
53719;BME280;39616;48.872;9.390;2023-02-14T11:14:26;100026.88;;;11.31;55.02
53719;BME280;39616;48.872;9.390;2023-02-14T11:16:59;100024.63;;;11.23;54.82
53719;BME280;39616;48.872;9.390;2023-02-14T11:19:33;100028.03;;;9.88;57.74
53719;BME280;39616;48.872;9.390;2023-02-14T11:22:04;100031.78;;;10.48;58.13
53719;BME280;39616;48.872;9.390;2023-02-14T11:24:37;100027.50;;;10.30;57.91
53719;BME280;39616;48.872;9.390;2023-02-14T11:29:46;100021.97;;;9.64;59.12
53719;BME280;39616;48.872;9.390;2023-02-14T11:32:22;100018.16;;;9.43;61.23
53719;BME280;39616;48.872;9.390;2023-02-14T11:35:04;100018.41;;;9.58;60.11
53719;BME280;39616;48.872;9.390;2023-02-14T11:37:44;100023.03;;;8.79;63.04
53719;BME280;39616;48.872;9.390;2023-02-14T11:43:17;100004.63;;;9.43;61.55
53719;BME280;39616;48.872;9.390;2023-02-14T11:45:48;100004.69;;;8.98;61.72
53719;BME280;39616;48.872;9.390;2023-02-14T11:53:48;99991.25;;;9.36;61.85
53719;BME280;39616;48.872;9.390;2023-02-14T11:56:21;99986.03;;;9.68;61.01
53719;BME280;39616;48.872;9.390;2023-02-14T11:58:55;99990.59;;;9.85;60.25
53719;BME280;39616;48.872;9.390;2023-02-14T12:01:30;99979.69;;;9.80;60.17
53719;BME280;39616;48.872;9.390;2023-02-14T12:04:26;99973.06;;;9.71;60.46
53719;BME280;39616;48.872;9.390;2023-02-14T12:07:13;99970.97;;;9.56;61.75
53719;BME280;39616;48.872;9.390;2023-02-14T12:09:45;99970.41;;;9.54;60.86
53719;BME280;39616;48.872;9.390;2023-02-14T12:12:19;99967.81;;;9.64;60.89
53719;BME280;39616;48.872;9.390;2023-02-14T12:14:50;99967.09;;;9.68;61.53
53719;BME280;39616;48.872;9.390;2023-02-14T12:17:30;99955.38;;;9.85;60.14
53719;BME280;39616;48.872;9.390;2023-02-14T12:20:18;99951.38;;;9.92;59.81
53719;BME280;39616;48.872;9.390;2023-02-14T12:23:20;99951.97;;;9.95;61.16
53719;BME280;39616;48.872;9.390;2023-02-14T12:25:59;99951.03;;;9.84;61.60
53719;BME280;39616;48.872;9.390;2023-02-14T12:28:39;99950.75;;;10.07;60.17
53719;BME280;39616;48.872;9.390;2023-02-14T12:31:11;99950.69;;;9.58;61.08
53719;BME280;39616;48.872;9.390;2023-02-14T12:33:42;99939.53;;;9.55;61.13
53719;BME280;39616;48.872;9.390;2023-02-14T12:56:47;99915.31;;;9.87;62.72
53719;BME280;39616;48.872;9.390;2023-02-14T12:59:28;99909.00;;;9.59;63.94
53719;BME280;39616;48.872;9.390;2023-02-14T13:05:22;99901.78;;;9.26;65.57
53719;BME280;39616;48.872;9.390;2023-02-14T13:08:02;99897.03;;;9.77;64.35
53719;BME280;39616;48.872;9.390;2023-02-14T13:10:52;99895.34;;;10.20;63.78
53719;BME280;39616;48.872;9.390;2023-02-14T13:13:51;99896.84;;;9.84;62.58
53719;BME280;39616;48.872;9.390;2023-02-14T13:16:44;99891.00;;;9.97;63.20
53719;BME280;39616;48.872;9.390;2023-02-14T13:22:05;99884.72;;;9.91;63.29
53719;BME280;39616;48.872;9.390;2023-02-14T13:24:45;99875.75;;;10.13;63.04
53719;BME280;39616;48.872;9.390;2023-02-14T13:27:22;99875.78;;;9.91;62.87
53719;BME280;39616;48.872;9.390;2023-02-14T13:29:57;99868.31;;;10.03;62.87
53719;BME280;39616;48.872;9.390;2023-02-14T13:32:37;99868.50;;;9.97;62.67
53719;BME280;39616;48.872;9.390;2023-02-14T13:35:15;99867.09;;;9.67;62.85
53719;BME280;39616;48.872;9.390;2023-02-14T13:37:56;99861.38;;;9.63;63.66
53719;BME280;39616;48.872;9.390;2023-02-14T13:40:28;99862.44;;;9.62;64.07
53719;BME280;39616;48.872;9.390;2023-02-14T13:43:00;99862.69;;;9.61;64.12
53719;BME280;39616;48.872;9.390;2023-02-14T13:48:05;99859.25;;;9.43;65.05
53719;BME280;39616;48.872;9.390;2023-02-14T13:50:38;99857.47;;;9.32;65.57
53719;BME280;39616;48.872;9.390;2023-02-14T13:53:12;99857.28;;;9.39;65.49
53719;BME280;39616;48.872;9.390;2023-02-14T13:55:43;99859.59;;;9.30;64.96
53719;BME280;39616;48.872;9.390;2023-02-14T13:58:18;99855.00;;;9.31;64.88
53719;BME280;39616;48.872;9.390;2023-02-14T14:00:51;99854.63;;;9.22;65.42
53719;BME280;39616;48.872;9.390;2023-02-14T14:08:46;99848.13;;;9.23;65.52
53719;BME280;39616;48.872;9.390;2023-02-14T14:16:33;99851.34;;;9.20;66.88
53719;BME280;39616;48.872;9.390;2023-02-14T14:22:09;99848.56;;;9.15;67.43
53719;BME280;39616;48.872;9.390;2023-02-14T14:24:56;99851.28;;;8.98;67.84
53719;BME280;39616;48.872;9.390;2023-02-14T14:27:34;99847.72;;;8.92;68.03
53719;BME280;39616;48.872;9.390;2023-02-14T14:30:21;99839.97;;;9.01;68.08
53719;BME280;39616;48.872;9.390;2023-02-14T14:32:52;99839.06;;;8.74;68.82
53719;BME280;39616;48.872;9.390;2023-02-14T14:35:24;99836.50;;;8.67;69.47
53719;BME280;39616;48.872;9.390;2023-02-14T14:37:56;99844.47;;;8.74;69.55
53719;BME280;39616;48.872;9.390;2023-02-14T14:40:33;99842.91;;;8.61;69.82
53719;BME280;39616;48.872;9.390;2023-02-14T14:45:48;99840.44;;;8.59;70.42
53719;BME280;39616;48.872;9.390;2023-02-14T14:48:30;99836.16;;;8.46;70.55
53719;BME280;39616;48.872;9.390;2023-02-14T14:51:03;99837.09;;;8.52;70.91
53719;BME280;39616;48.872;9.390;2023-02-14T14:54:06;99829.94;;;8.46;71.07
53719;BME280;39616;48.872;9.390;2023-02-14T14:56:37;99829.72;;;8.48;70.84
53719;BME280;39616;48.872;9.390;2023-02-14T15:01:51;99830.06;;;8.51;71.39
53719;BME280;39616;48.872;9.390;2023-02-14T15:04:26;99830.09;;;8.39;72.84
53719;BME280;39616;48.872;9.390;2023-02-14T15:07:19;99832.97;;;8.33;72.43
53719;BME280;39616;48.872;9.390;2023-02-14T15:09:50;99829.56;;;8.37;72.54
53719;BME280;39616;48.872;9.390;2023-02-14T15:12:22;99828.69;;;8.20;72.61
53719;BME280;39616;48.872;9.390;2023-02-14T15:15:14;99827.31;;;8.17;73.08
53719;BME280;39616;48.872;9.390;2023-02-14T15:17:45;99824.75;;;8.11;73.56
53719;BME280;39616;48.872;9.390;2023-02-14T15:20:18;99831.94;;;8.05;73.30